Tropical Cyclones
[Index]
Main Index Home Page Stock Weather Photos Extreme Storms Discussion Storm News and Storm Chasing Reports Tropical Cyclones / Hurricanes / Typhoons Weather Data and Links Wild Fires / Bushfires Weather Observation Techniques Weather Picture Catalogue Tornado Pictures and Reports Stock Video Footage and DVDs for sale
Season 2006-2007 Tropical Cyclone JACOB Track Map
Season 2006-2007 Summaries: [BoM-AU] [JTWC-AU] [JTWC-SIO] [JTWC-SPAC] [JTWC-SH]
<<- Previous TC | JTWC 2006-2007 Season | Next TC ->>

click for intensity scale information  Lat/long Grid: Show Hide

 Date Labels: Show Hide

Joint Typhoon Warning Centre Cyclone Data

Name: JACOB

03 Mar 2007 00:00 UTC to 12 Mar 2007 18:00 UTC

    date/time    lat    long     hPa   cat  kts
2007-03-03 00   13.7   117.8    1004         20          
2007-03-03 06   14.0   117.3    1002         25          
2007-03-03 12   14.2   116.9    1004         25          
2007-03-03 18   14.4   116.5    1002         25          
2007-03-04 00   14.6   116.1    1002         25          
2007-03-04 06   14.7   115.8    1002         25          
2007-03-04 12   14.7   115.6    1002         25          
2007-03-04 18   14.7   115.3    1002         25          
2007-03-05 00   14.7   114.9    1002         25          
2007-03-05 06   14.6   114.2    1000         30          
2007-03-05 12   14.6   113.2    1000         30          
2007-03-05 18   14.7   112.0    1000         30          
2007-03-06 00   14.4   110.8    1000         30          
2007-03-06 06   13.8   110.1    1000         30          
2007-03-06 12   13.4   109.6    1000         30          
2007-03-06 18   13.1   108.9    1000         30          
2007-03-07 00   12.8   108.3     997         35          
2007-03-07 06   12.7   107.8     991    1    45          
2007-03-07 12   12.8   107.2     991    1    45          
2007-03-07 18   13.0   106.4     984    2    55          
2007-03-07 18   13.0   106.4     984    2    55          
2007-03-08 00   13.0   105.7     984    2    55          
2007-03-08 00   13.0   105.7     984    2    55          
2007-03-08 06   12.7   105.8     987    1    45          
2007-03-08 12   13.1   106.2     987    1    50          
2007-03-08 18   13.7   106.7     987    1    50          
2007-03-09 00   14.1   107.6     984    2    55          
2007-03-09 00   14.1   107.6     984    2    55          
2007-03-09 06   14.6   108.4     984    2    55          
2007-03-09 06   14.6   108.4     984    2    55          
2007-03-09 12   15.2   109.1     976    2    65          
2007-03-09 12   15.2   109.1     976    2    65          
2007-03-09 12   15.2   109.1     976    2    65          
2007-03-09 18   15.9   109.7     972    2    70          
2007-03-09 18   15.9   109.7     972    2    70          
2007-03-09 18   15.9   109.7     972    2    70          
2007-03-10 00   16.4   110.4     967    3    75          
2007-03-10 00   16.4   110.4     967    3    75          
2007-03-10 00   16.4   110.4     967    3    75          
2007-03-10 06   17.1   111.3     976    2    65          
2007-03-10 06   17.1   111.3     976    2    65          
2007-03-10 12   17.9   112.3     984    2    55          
2007-03-10 12   17.9   112.3     984    2    55          
2007-03-10 18   18.7   113.2     984    2    55          
2007-03-10 18   18.7   113.2     984    2    55          
2007-03-11 00   19.1   113.9     987    1    50          
2007-03-11 06   19.3   114.5     991    1    45          
2007-03-11 12   19.6   115.5     994    1    40          
2007-03-11 18   19.9   116.7     994    1    40          
2007-03-12 00   20.2   118.0     997         35          
2007-03-12 06   20.8   119.4    1000         30          
2007-03-12 12   22.1   120.7    1002         25          
2007-03-12 18   23.7   122.3    1002         25          
Winds are 1-min average.

Tropical cyclone tracks developed by Michael Bath using data from the Joint Typhoon Warning Centre Best Tracks and Google Maps.


[Australian Severe Weather index] [Copyright Notice] [Email Contacts] [Search This Site] [Privacy Policy]
Document: tropical_cyclone_jacob.htm Updated: 28 June 2017